Time;durP1;ratioP1;P1;durP2;ratioP2;P2;SDS_P1;SDS_P2;PMS_P1;PMS_P2;Temp;Humidity;BMP_temperature;BMP_pressure;BME280_temperature;BME280_humidity;BME280_pressure;Samples;Min_cycle;Max_cycle;Signal;HPM_P1;HPM_P2
2021/11/01 00:01:57;;;;;;;2.55;1.55;;;16.20;75.00;;;;;;4993058;28;96246;-66
2021/11/01 00:04:28;;;;;;;3.38;1.35;;;16.20;75.00;;;;;;4985712;28;95324;-67
2021/11/01 00:06:59;;;;;;;1.58;1.00;;;16.30;75.00;;;;;;4999428;28;98918;-67
2021/11/01 00:09:30;;;;;;;6.05;1.33;;;16.30;75.10;;;;;;4988743;28;95284;-67
2021/11/01 00:12:02;;;;;;;4.88;1.45;;;16.30;75.00;;;;;;4983414;28;95555;-67
2021/11/01 00:14:34;;;;;;;;;;;16.30;75.00;;;;;;4988606;28;95722;-67
2021/11/01 00:17:04;;;;;;;3.27;1.20;;;16.40;75.10;;;;;;5029505;27;96633;-67
2021/11/01 00:19:37;;;;;;;5.90;1.20;;;16.50;75.10;;;;;;4996930;28;95421;-67
2021/11/01 00:22:07;;;;;;;;;;;16.50;75.10;;;;;;4994524;28;95744;-68
2021/11/01 00:24:40;;;;;;;3.75;1.00;;;16.50;75.10;;;;;;4982835;28;96930;-67
2021/11/01 00:27:11;;;;;;;1.88;1.20;;;16.50;75.00;;;;;;4984208;28;100536;-67
2021/11/01 00:29:42;;;;;;;2.42;1.00;;;16.60;75.10;;;;;;4988349;28;95407;-67
2021/11/01 00:32:15;;;;;;;4.68;1.30;;;16.60;75.10;;;;;;4983346;28;95814;-68
2021/11/01 00:34:47;;;;;;;6.47;1.25;;;16.70;75.10;;;;;;4983214;28;96014;-68
2021/11/01 00:37:17;;;;;;;4.70;1.23;;;16.70;75.10;;;;;;4985254;28;96177;-68
2021/11/01 00:40:06;;;;;;;1.73;1.25;;;16.80;75.10;;;;;;4986107;28;95555;-69
2021/11/01 00:42:37;;;;;;;3.72;1.20;;;16.80;75.00;;;;;;5004287;28;96213;-68
2021/11/01 00:45:10;;;;;;;2.58;0.90;;;16.80;74.80;;;;;;4998984;28;96095;-68
2021/11/01 00:47:43;;;;;;;3.70;1.30;;;16.80;74.80;;;;;;4984579;28;96329;-69
2021/11/01 00:50:15;;;;;;;6.13;1.52;;;16.80;75.40;;;;;;4987452;28;96034;-68
2021/11/01 00:52:48;;;;;;;2.55;1.00;;;16.80;74.80;;;;;;4984198;28;95903;-67
2021/11/01 00:55:37;;;;;;;;;;;16.80;74.70;;;;;;4990673;28;95707;-70
2021/11/01 00:58:09;;;;;;;2.30;1.15;;;16.90;74.70;;;;;;5002602;28;97416;-67
2021/11/01 01:00:43;;;;;;;6.97;1.48;;;16.90;74.60;;;;;;4987112;28;96041;-68
2021/11/01 01:03:17;;;;;;;4.68;1.27;;;16.90;74.60;;;;;;4986066;28;96255;-68
2021/11/01 01:05:53;;;;;;;3.92;1.67;;;16.90;74.60;;;;;;4981590;28;95594;-68
2021/11/01 01:08:27;;;;;;;2.72;1.15;;;17.00;74.60;;;;;;4987185;28;96111;-67
2021/11/01 01:11:47;;;;;;;2.70;1.50;;;17.00;74.60;;;;;;4983794;28;95955;-67
2021/11/01 01:14:26;;;;;;;2.88;1.40;;;17.00;74.50;;;;;;4986686;28;95878;-67
2021/11/01 01:17:00;;;;;;;3.65;1.65;;;17.00;74.50;;;;;;4992617;28;96370;-66
2021/11/01 01:19:43;;;;;;;1.73;1.30;;;17.10;74.40;;;;;;4981843;28;97119;-67
2021/11/01 01:22:35;;;;;;;1.80;1.25;;;17.10;74.30;;;;;;4981490;28;95702;-66
2021/11/01 01:25:24;;;;;;;3.58;1.65;;;17.10;74.20;;;;;;4985600;28;99141;-68
2021/11/01 01:27:55;;;;;;;1.75;1.30;;;17.10;74.10;;;;;;4986534;28;95284;-67
2021/11/01 01:30:27;;;;;;;6.68;1.85;;;17.10;74.10;;;;;;4991627;28;96342;-68
2021/11/01 01:33:00;;;;;;;3.72;1.45;;;17.20;74.00;;;;;;4991323;28;95763;-70
2021/11/01 01:35:34;;;;;;;1.92;1.20;;;17.20;73.90;;;;;;4994578;28;95135;-68
2021/11/01 01:38:05;;;;;;;5.95;1.55;;;17.20;73.80;;;;;;4992223;28;95666;-68
2021/11/01 01:40:36;;;;;;;1.75;1.10;;;17.30;73.70;;;;;;4997595;28;95897;-68
2021/11/01 01:43:07;;;;;;;;;;;17.30;73.90;;;;;;4993024;28;95762;-66
2021/11/01 01:45:40;;;;;;;4.73;1.83;;;17.30;74.50;;;;;;4994329;28;95935;-68
2021/11/01 01:48:13;;;;;;;3.50;1.40;;;17.40;73.80;;;;;;4989258;28;95533;-67
2021/11/01 01:50:44;;;;;;;2.80;1.60;;;17.40;73.70;;;;;;4985102;28;96134;-68
2021/11/01 01:53:14;;;;;;;2.50;1.42;;;17.40;73.60;;;;;;4988231;28;96892;-68
2021/11/01 01:55:44;;;;;;;4.05;1.70;;;17.40;73.70;;;;;;4984747;28;95298;-67
2021/11/01 01:58:14;;;;;;;1.30;1.10;;;17.50;71.90;;;;;;4993360;28;95276;-66
2021/11/01 02:01:06;;;;;;;;;;;17.50;73.50;;;;;;5021826;27;96771;-69
2021/11/01 02:03:40;;;;;;;1.65;1.02;;;17.50;73.50;;;;;;4992884;28;95747;-68
2021/11/01 02:06:20;;;;;;;3.05;1.02;;;17.60;73.50;;;;;;5000061;28;96303;-68
2021/11/01 02:09:12;;;;;;;3.30;1.50;;;17.60;73.30;;;;;;4989764;28;95335;-67
2021/11/01 02:12:23;;;;;;;1.95;1.33;;;17.60;73.40;;;;;;4986515;28;96026;-68
2021/11/01 02:14:58;;;;;;;2.53;1.30;;;17.60;73.40;;;;;;4987721;28;96244;-68
2021/11/01 02:17:34;;;;;;;4.57;1.48;;;17.60;73.20;;;;;;4980975;28;95180;-68
2021/11/01 02:20:19;;;;;;;2.22;1.27;;;17.70;73.30;;;;;;4986585;28;96827;-69
2021/11/01 02:23:07;;;;;;;2.72;1.20;;;17.70;72.90;;;;;;4983987;28;96139;-69
2021/11/01 02:25:44;;;;;;;2.05;1.13;;;17.70;73.10;;;;;;4984613;28;96074;-69
2021/11/01 02:28:21;;;;;;;1.60;1.17;;;17.80;70.80;;;;;;4982974;28;96122;-69
2021/11/01 02:30:53;;;;;;;1.88;1.30;;;17.80;72.90;;;;;;5015439;27;96170;-68
2021/11/01 02:33:25;;;;;;;1.77;1.08;;;17.80;72.70;;;;;;4993290;28;95635;-68
2021/11/01 02:35:56;;;;;;;2.28;1.33;;;17.80;72.90;;;;;;4986362;28;95571;-69
2021/11/01 02:38:31;;;;;;;1.23;1.02;;;17.90;72.90;;;;;;4987721;28;95265;-68
2021/11/01 02:41:24;;;;;;;1.20;1.10;;;17.90;72.80;;;;;;5004688;28;95323;-66
2021/11/01 02:44:04;;;;;;;1.95;1.17;;;17.90;72.70;;;;;;4985402;28;96155;-67
2021/11/01 02:46:43;;;;;;;1.63;1.10;;;18.00;72.80;;;;;;4988038;28;97322;-67
2021/11/01 02:49:14;;;;;;;2.38;1.23;;;18.00;72.70;;;;;;4990613;28;96010;-69
2021/11/01 02:51:45;;;;;;;1.30;1.17;;;18.00;72.80;;;;;;4982308;28;95231;-69
2021/11/01 02:54:15;;;;;;;3.22;1.10;;;18.00;72.80;;;;;;4999379;28;96853;-69
2021/11/01 02:56:45;;;;;;;4.05;1.52;;;18.10;72.90;;;;;;4986140;28;98100;-69
2021/11/01 02:59:18;;;;;;;1.77;1.50;;;18.10;72.60;;;;;;4985111;28;95755;-67
2021/11/01 03:01:49;;;;;;;1.77;1.20;;;18.10;72.60;;;;;;4982823;28;97543;-68
2021/11/01 03:04:19;;;;;;;1.38;1.15;;;18.20;72.70;;;;;;4986173;28;96135;-68
2021/11/01 03:06:54;;;;;;;1.65;1.10;;;18.20;72.60;;;;;;4987223;28;95862;-68
2021/11/01 03:09:29;;;;;;;2.25;1.13;;;18.20;72.30;;;;;;4991792;28;95500;-67
2021/11/01 03:12:04;;;;;;;1.20;1.10;;;18.20;72.30;;;;;;4990822;28;95276;-66
2021/11/01 03:14:43;;;;;;;2.38;1.38;;;18.30;72.30;;;;;;4990256;28;96127;-67
2021/11/01 03:17:18;;;;;;;1.70;1.10;;;18.30;72.20;;;;;;4992591;28;95661;-67
2021/11/01 03:20:15;;;;;;;1.65;1.00;;;18.30;72.20;;;;;;4984372;28;98658;-67
2021/11/01 03:22:53;;;;;;;1.83;1.13;;;18.30;71.80;;;;;;4985686;28;95803;-68
2021/11/01 03:25:29;;;;;;;2.03;1.20;;;18.40;72.10;;;;;;4983590;28;95860;-67
2021/11/01 03:28:01;;;;;;;3.50;1.15;;;18.40;72.00;;;;;;4987419;28;95414;-68
2021/11/01 03:30:35;;;;;;;3.72;1.42;;;18.50;71.60;;;;;;4991856;28;97040;-69
2021/11/01 03:33:07;;;;;;;1.38;0.90;;;18.50;71.60;;;;;;4988480;28;95391;-67
2021/11/01 03:35:39;;;;;;;2.25;1.45;;;18.50;71.50;;;;;;4988628;28;96429;-66
2021/11/01 03:38:12;;;;;;;1.75;1.17;;;18.50;71.50;;;;;;4993560;28;96291;-66
2021/11/01 03:40:46;;;;;;;1.50;1.10;;;18.60;71.60;;;;;;4993913;28;95836;-67
2021/11/01 03:43:29;;;;;;;2.08;1.13;;;18.70;69.40;;;;;;4991042;28;95911;-66
2021/11/01 03:46:03;;;;;;;4.50;1.40;;;18.80;71.50;;;;;;4989767;28;95576;-67
2021/11/01 03:48:39;;;;;;;2.78;1.30;;;18.90;71.40;;;;;;5001075;28;97931;-67
2021/11/01 03:53:59;;;;;;;4.28;1.30;;;19.00;71.10;;;;;;5004109;28;95421;-72
2021/11/01 03:56:33;;;;;;;3.10;1.33;;;19.10;71.00;;;;;;4990277;28;96117;-69
2021/11/01 03:59:05;;;;;;;2.00;1.55;;;19.20;70.90;;;;;;5003888;28;95639;-66
2021/11/01 04:01:38;;;;;;;1.77;1.20;;;19.20;70.80;;;;;;4997346;28;95623;-66
2021/11/01 04:04:10;;;;;;;2.33;1.70;;;19.30;70.70;;;;;;5024689;27;95578;-67
2021/11/01 04:06:44;;;;;;;1.48;1.30;;;19.30;70.60;;;;;;4987315;28;96718;-67
2021/11/01 04:09:18;;;;;;;4.80;1.95;;;19.30;70.50;;;;;;4984302;28;97241;-67
2021/11/01 04:11:51;;;;;;;2.08;1.23;;;19.50;70.50;;;;;;4993100;28;96146;-67
2021/11/01 04:14:27;;;;;;;3.25;1.63;;;19.50;70.40;;;;;;4985111;28;95710;-68
2021/11/01 04:17:00;;;;;;;2.30;1.60;;;19.50;70.40;;;;;;4991600;28;96067;-70
2021/11/01 04:19:35;;;;;;;3.55;1.95;;;19.60;70.30;;;;;;4991276;28;96102;-67
2021/11/01 04:22:06;;;;;;;6.57;2.30;;;19.70;70.20;;;;;;4984739;28;97522;-68
2021/11/01 04:24:39;;;;;;;2.75;1.92;;;19.70;70.20;;;;;;4991220;28;101156;-69
2021/11/01 04:27:09;;;;;;;4.43;1.98;;;19.70;70.10;;;;;;4984837;28;98829;-68
2021/11/01 04:29:39;;;;;;;12.70;2.45;;;19.80;70.10;;;;;;4990067;28;95369;-67
2021/11/01 04:35:37;;;;;;;7.38;2.97;;;19.90;69.90;;;;;;4936419;28;95964;-67
2021/11/01 04:40:54;;;;;;;9.93;3.55;;;20.00;69.80;;;;;;4935871;28;96387;-67
2021/11/01 04:54:43;;;;;;;7.57;3.38;;;20.20;69.40;;;;;;4935249;28;97464;-68
2021/11/01 04:57:21;;;;;;;6.50;3.10;;;20.30;69.40;;;;;;4929103;28;95870;-66
2021/11/01 04:59:53;;;;;;;7.63;2.97;;;20.30;69.20;;;;;;4913542;28;96357;-66
2021/11/01 05:02:29;;;;;;;10.60;3.47;;;20.30;69.20;;;;;;4913837;28;95797;-69
2021/11/01 05:05:01;;;;;;;10.52;3.50;;;20.40;69.10;;;;;;4919767;28;95493;-70
2021/11/01 05:07:33;;;;;;;8.18;3.35;;;20.40;69.10;;;;;;4933422;28;95744;-69
2021/11/01 05:10:13;;;;;;;7.25;2.90;;;20.40;69.00;;;;;;4936453;28;96089;-69
2021/11/01 05:12:51;;;;;;;7.75;2.72;;;20.50;69.00;;;;;;4972952;28;97476;-67
2021/11/01 05:15:32;;;;;;;10.25;3.47;;;20.50;68.80;;;;;;4983640;28;95413;-67
2021/11/01 05:23:53;;;;;;;6.45;2.63;;;20.60;68.70;;;;;;4986152;28;95400;-68
2021/11/01 05:26:54;;;;;;;5.28;3.17;;;20.70;68.70;;;;;;4986066;28;95824;-69
2021/11/01 05:29:31;;;;;;;5.65;3.60;;;20.70;68.60;;;;;;4993352;28;95880;-67
2021/11/01 05:32:12;;;;;;;7.43;3.10;;;20.80;68.50;;;;;;4985794;28;95268;-68
2021/11/01 05:34:43;;;;;;;6.18;2.90;;;20.80;68.50;;;;;;4994561;28;95823;-67
2021/11/01 05:37:14;;;;;;;4.93;2.80;;;20.80;68.40;;;;;;4993847;28;98899;-67
2021/11/01 05:39:49;;;;;;;4.75;2.80;;;20.90;68.30;;;;;;4987973;28;95238;-67
2021/11/01 05:42:20;;;;;;;6.05;3.50;;;20.90;68.30;;;;;;4991888;28;96070;-67
2021/11/01 05:44:53;;;;;;;;;;;20.90;68.20;;;;;;4983357;28;97459;-67
2021/11/01 05:47:26;;;;;;;3.30;2.40;;;21.00;68.20;;;;;;4986496;28;96196;-70
2021/11/01 05:49:58;;;;;;;5.63;3.03;;;21.00;68.10;;;;;;4981093;28;97640;-66
2021/11/01 05:52:33;;;;;;;5.00;2.92;;;21.00;68.00;;;;;;5003025;28;96473;-67
2021/11/01 05:58:09;;;;;;;4.63;2.90;;;21.10;68.00;;;;;;4990653;28;95884;-66
2021/11/01 06:03:36;;;;;;;5.47;3.53;;;21.10;67.80;;;;;;4991515;28;96642;-67
2021/11/01 06:14:46;;;;;;;4.65;2.75;;;21.20;67.60;;;;;;4986128;27;96500;-67
2021/11/01 06:17:20;;;;;;;4.15;2.78;;;21.30;67.50;;;;;;4988866;28;95939;-69
2021/11/01 06:19:54;;;;;;;4.28;2.70;;;21.30;67.50;;;;;;4987901;28;95295;-66
2021/11/01 06:22:26;;;;;;;5.03;2.67;;;21.30;67.50;;;;;;4979595;28;95392;-66
2021/11/01 06:25:00;;;;;;;3.53;2.10;;;21.30;67.40;;;;;;4983551;28;98490;-67
2021/11/01 06:27:31;;;;;;;4.88;2.38;;;21.30;67.30;;;;;;4986839;28;95989;-68
2021/11/01 06:32:45;;;;;;;4.82;2.47;;;21.40;67.30;;;;;;5004932;28;95418;-68
2021/11/01 07:15:13;;;;;;;3.25;2.38;;;21.70;66.70;;;;;;4985396;28;95700;-66
2021/11/01 07:17:58;;;;;;;4.80;2.17;;;21.70;66.60;;;;;;5002610;28;95793;-66
2021/11/01 07:20:39;;;;;;;4.43;2.58;;;21.70;66.60;;;;;;4988121;28;98520;-66
2021/11/01 08:20:58;;;;;;;8.60;3.60;;;21.10;60.10;;;;;;4983927;28;95447;-67
2021/11/01 08:23:48;;;;;;;7.43;4.28;;;21.10;60.20;;;;;;5016416;27;96055;-66
2021/11/01 08:29:17;;;;;;;5.10;2.83;;;21.00;60.10;;;;;;4980361;28;96598;-66
2021/11/01 08:37:29;;;;;;;3.95;2.22;;;21.00;60.60;;;;;;4980644;28;95918;-67
2021/11/01 08:40:10;;;;;;;3.60;2.58;;;20.90;60.70;;;;;;4984104;28;98459;-66
2021/11/01 09:07:53;;;;;;;12.52;5.70;;;20.80;62.60;;;;;;4989070;28;95889;-67
2021/11/01 09:13:30;;;;;;;14.98;5.78;;;20.70;62.80;;;;;;4988481;28;95867;-68
2021/11/01 09:19:40;;;;;;;7.30;4.07;;;20.70;63.50;;;;;;4986289;28;96810;-67
2021/11/01 09:22:17;;;;;;;10.45;4.28;;;20.60;63.70;;;;;;4982720;28;97507;-68
2021/11/01 09:25:42;;;;;;;5.90;3.65;;;20.60;63.80;;;;;;4980298;28;96219;-67
2021/11/01 09:27:54;;;;;;;8.73;4.63;;;20.60;64.10;;;;;;4973637;28;95406;-68
2021/11/01 09:35:41;;;;;;;9.55;3.65;;;20.60;64.40;;;;;;4986297;28;95177;-67
2021/11/01 09:41:29;;;;;;;8.45;4.28;;;20.50;65.30;;;;;;4998832;28;95966;-66
2021/11/01 09:44:09;;;;;;;6.43;4.10;;;20.40;65.00;;;;;;4984255;28;95733;-66
2021/11/01 09:46:44;;;;;;;8.57;3.85;;;20.40;65.50;;;;;;5000811;28;96000;-69
2021/11/01 09:49:17;;;;;;;16.30;5.88;;;20.30;65.30;;;;;;4981050;28;95765;-66
2021/11/01 09:51:50;;;;;;;;;;;20.30;65.60;;;;;;4982861;28;95339;-66
2021/11/01 09:54:25;;;;;;;15.63;7.63;;;20.20;65.70;;;;;;5017290;27;96856;-66
2021/11/01 09:57:19;;;;;;;18.45;8.80;;;20.20;66.10;;;;;;4986286;28;98433;-65
2021/11/01 09:59:55;;;;;;;21.00;10.60;;;20.20;66.20;;;;;;4983484;28;96851;-65
2021/11/01 10:02:29;;;;;;;16.60;9.80;;;20.10;66.40;;;;;;4986493;28;95278;-67
2021/11/01 10:05:03;;;;;;;13.60;9.02;;;20.10;66.80;;;;;;4990291;28;95778;-66
2021/11/01 10:07:47;;;;;;;18.40;10.80;;;20.00;66.80;;;;;;4984353;28;98113;-66
2021/11/01 10:10:22;;;;;;;21.92;11.20;;;20.00;67.00;;;;;;4984406;28;95731;-66
2021/11/01 10:13:23;;;;;;;16.08;10.73;;;20.00;67.70;;;;;;4987615;28;96235;-67
2021/11/01 11:48:23;;;;;;;8.55;6.10;;;19.70;69.40;;;;;;4993682;28;95635;-67
2021/11/01 11:51:04;;;;;;;7.15;5.68;;;19.70;69.50;;;;;;4992506;28;96127;-67
2021/11/01 11:54:02;;;;;;;8.85;5.88;;;19.70;69.50;;;;;;4985021;28;95707;-67
2021/11/01 11:56:57;;;;;;;8.45;5.25;;;19.60;69.60;;;;;;4980042;28;95749;-66
2021/11/01 11:59:37;;;;;;;9.30;5.55;;;19.60;69.60;;;;;;4989171;28;97780;-67
2021/11/01 12:02:10;;;;;;;8.85;5.53;;;19.60;69.70;;;;;;4992382;28;97747;-67
2021/11/01 12:04:49;;;;;;;7.53;6.15;;;19.60;69.70;;;;;;4992477;28;95961;-66
2021/11/01 12:07:30;;;;;;;8.75;5.90;;;19.60;69.80;;;;;;4983813;28;95886;-67
2021/11/01 12:19:35;;;;;;;9.15;5.68;;;19.50;69.90;;;;;;4995745;28;95595;-67
2021/11/01 12:22:09;;;;;;;7.10;5.45;;;19.50;70.00;;;;;;4989703;28;95942;-66
2021/11/01 12:24:50;;;;;;;11.38;5.97;;;19.40;69.90;;;;;;4985566;28;95787;-66
2021/11/01 12:27:22;;;;;;;7.53;5.25;;;19.40;70.00;;;;;;4983406;28;95743;-66
2021/11/01 12:29:55;;;;;;;9.18;5.88;;;19.40;70.20;;;;;;4998345;28;95936;-66
2021/11/01 12:32:30;;;;;;;9.23;4.95;;;19.40;70.10;;;;;;4987438;28;95849;-66
2021/11/01 12:35:05;;;;;;;8.13;5.25;;;19.40;70.80;;;;;;4990962;28;95557;-67
2021/11/01 12:37:49;;;;;;;9.35;6.10;;;19.30;70.10;;;;;;5002805;28;96297;-67
2021/11/01 12:59:47;;;;;;;8.68;5.32;;;19.20;70.40;;;;;;5020516;27;96550;-67
2021/11/01 13:02:30;;;;;;;6.03;4.72;;;19.10;70.50;;;;;;4984852;28;98111;-67
2021/11/01 13:05:07;;;;;;;8.52;4.93;;;19.10;70.50;;;;;;5005222;28;95989;-66
2021/11/01 13:10:48;;;;;;;6.32;4.55;;;19.10;70.60;;;;;;4997040;28;95642;-67
2021/11/01 13:19:17;;;;;;;8.20;5.22;;;19.00;70.60;;;;;;4985416;28;96478;-67
2021/11/01 13:21:56;;;;;;;7.05;5.28;;;19.00;70.70;;;;;;4983173;28;96028;-68
2021/11/01 13:24:48;;;;;;;7.55;5.55;;;19.00;70.80;;;;;;4996360;28;95539;-67
2021/11/01 13:27:58;;;;;;;8.48;5.18;;;19.00;70.80;;;;;;4979968;28;96070;-68
2021/11/01 13:39:05;;;;;;;10.00;5.53;;;18.90;70.90;;;;;;4987751;28;95705;-66
2021/11/01 13:41:45;;;;;;;7.53;5.60;;;18.90;70.90;;;;;;5004285;28;96079;-67
2021/11/01 13:44:24;;;;;;;7.93;5.30;;;18.90;71.00;;;;;;5003627;28;97883;-66
2021/11/01 13:47:00;;;;;;;7.50;5.35;;;18.80;70.90;;;;;;4990898;28;96673;-67
2021/11/01 13:49:44;;;;;;;8.55;5.65;;;18.80;71.00;;;;;;5016598;27;96048;-64
2021/11/01 13:55:41;;;;;;;7.30;5.75;;;18.80;71.20;;;;;;4986548;28;95804;-66
2021/11/01 13:58:07;;;;;;;7.20;4.75;;;18.80;71.10;;;;;;4984585;28;95870;-67
2021/11/01 14:03:43;;;;;;;7.95;5.05;;;18.70;71.20;;;;;;5017251;27;96245;-67
2021/11/01 14:17:46;;;;;;;8.57;5.30;;;18.60;71.30;;;;;;4985356;28;96382;-67
2021/11/01 14:27:00;;;;;;;8.38;5.30;;;18.50;71.40;;;;;;4986928;28;95199;-66
2021/11/01 14:28:52;;;;;;;8.93;4.95;;;18.50;71.40;;;;;;4986142;28;96278;-67
2021/11/01 14:34:45;;;;;;;5.03;4.13;;;18.40;71.40;;;;;;4992637;28;95645;-67
2021/11/01 15:17:38;;;;;;;6.82;4.38;;;18.10;72.00;;;;;;4988263;28;95373;-68
2021/11/01 15:20:26;;;;;;;7.15;4.43;;;18.10;72.00;;;;;;4991413;28;95382;-66
2021/11/01 15:23:14;;;;;;;4.95;3.65;;;18.10;72.10;;;;;;4996572;28;96271;-66
2021/11/01 15:37:34;;;;;;;5.70;3.83;;;18.20;72.80;;;;;;5021895;27;96121;-67
2021/11/01 16:17:16;;;;;;;3.88;3.35;;;18.70;70.90;;;;;;4989235;28;95840;-72
2021/11/01 16:19:52;;;;;;;3.25;2.90;;;18.60;70.90;;;;;;4990158;28;96036;-66
2021/11/01 16:22:23;;;;;;;5.68;3.25;;;18.60;70.80;;;;;;4972936;28;96069;-66
2021/11/01 16:24:56;;;;;;;4.55;3.22;;;18.60;70.90;;;;;;4987516;28;95249;-65
2021/11/01 16:27:29;;;;;;;4.57;3.13;;;18.50;70.80;;;;;;4986434;28;96029;-66
2021/11/01 16:30:07;;;;;;;4.15;2.90;;;18.50;70.80;;;;;;4971177;28;98452;-66
2021/11/01 16:32:44;;;;;;;5.90;4.20;;;18.40;70.80;;;;;;4991219;28;95762;-63
2021/11/01 16:35:21;;;;;;;4.30;3.30;;;18.40;70.90;;;;;;4987613;28;95796;-65
2021/11/01 16:40:27;;;;;;;5.20;3.10;;;18.30;71.40;;;;;;5015376;27;98161;-64
2021/11/01 16:43:03;;;;;;;4.13;3.67;;;18.30;70.90;;;;;;4987528;28;95818;-65
2021/11/01 16:45:38;;;;;;;6.18;3.75;;;18.20;70.70;;;;;;4984072;28;95687;-67
2021/11/01 16:48:14;;;;;;;6.00;4.18;;;18.20;71.00;;;;;;4982376;28;96318;-66
2021/11/01 16:50:47;;;;;;;5.68;3.78;;;18.10;70.90;;;;;;4983553;28;96052;-69
2021/11/01 16:53:19;;;;;;;6.70;4.07;;;18.10;71.00;;;;;;4987196;28;95902;-70
2021/11/01 16:55:51;;;;;;;5.28;3.95;;;18.00;70.90;;;;;;4985650;28;95971;-66
2021/11/01 16:58:28;;;;;;;4.97;3.65;;;18.00;71.00;;;;;;4986900;28;95774;-68
2021/11/01 17:01:05;;;;;;;4.75;3.75;;;18.00;71.10;;;;;;4985243;28;96735;-70
2021/11/01 17:03:46;;;;;;;6.55;4.38;;;17.90;71.10;;;;;;4984927;28;95589;-66
2021/11/01 17:06:41;;;;;;;5.13;3.80;;;17.90;71.10;;;;;;4987304;28;95368;-70
2021/11/01 17:26:10;;;;;;;5.88;3.90;;;17.60;71.30;;;;;;4982725;28;95503;-69
2021/11/01 17:37:28;;;;;;;6.65;4.43;;;17.50;71.40;;;;;;4984802;28;95377;-69
2021/11/01 18:38:21;;;;;;;7.57;3.70;;;16.80;72.00;;;;;;4981703;28;95399;-66
2021/11/01 18:41:15;;;;;;;5.88;3.75;;;16.80;72.00;;;;;;4988224;28;95773;-65
2021/11/01 18:52:18;;;;;;;5.32;3.55;;;16.70;72.00;;;;;;4982697;28;95234;-66
2021/11/01 18:54:54;;;;;;;6.35;3.90;;;16.60;72.00;;;;;;4984940;28;95843;-67
2021/11/01 18:57:29;;;;;;;7.22;3.55;;;16.60;72.00;;;;;;4987210;28;95759;-67
2021/11/01 19:00:05;;;;;;;8.85;3.60;;;16.60;72.10;;;;;;5002819;28;97821;-67
2021/11/01 19:02:47;;;;;;;5.80;3.47;;;16.60;72.00;;;;;;4987427;28;95207;-66
2021/11/01 19:05:37;;;;;;;4.40;3.67;;;16.60;72.10;;;;;;4981687;28;95772;-66
2021/11/01 19:08:26;;;;;;;5.75;3.58;;;16.50;72.00;;;;;;4991597;28;97244;-65
2021/11/01 20:05:33;;;;;;;4.85;3.50;;;16.10;72.40;;;;;;4990098;28;96580;-64
2021/11/01 20:08:25;;;;;;;7.97;4.03;;;16.10;72.40;;;;;;5004427;28;98117;-65
2021/11/01 21:26:04;;;;;;;2.65;1.98;;;15.90;73.30;;;;;;4980006;28;96103;-64
2021/11/01 21:28:37;;;;;;;5.90;3.13;;;15.90;73.30;;;;;;4982345;28;97931;-64
2021/11/01 21:31:33;;;;;;;3.03;2.55;;;15.80;73.30;;;;;;4982286;28;95357;-69
2021/11/01 21:34:13;;;;;;;2.38;2.13;;;15.90;73.40;;;;;;4984699;28;95683;-69
2021/11/01 21:36:44;;;;;;;4.40;2.88;;;15.90;73.40;;;;;;4981865;28;97424;-67
2021/11/01 21:39:17;;;;;;;4.20;2.58;;;15.90;73.50;;;;;;4989247;28;96234;-68
2021/11/01 21:41:56;;;;;;;2.47;1.92;;;15.90;73.40;;;;;;4981620;28;96939;-67
2021/11/01 21:44:33;;;;;;;3.17;2.88;;;15.90;73.40;;;;;;4987609;28;96041;-70
2021/11/01 21:47:09;;;;;;;2.53;2.33;;;15.90;73.50;;;;;;4983902;28;96052;-66
2021/11/01 21:49:44;;;;;;;3.03;2.72;;;15.90;73.50;;;;;;4992799;28;96102;-66
2021/11/01 21:52:20;;;;;;;2.70;1.90;;;15.90;73.50;;;;;;4989017;28;95841;-66
2021/11/01 21:54:55;;;;;;;2.78;2.13;;;15.90;73.60;;;;;;4987632;28;96215;-66
2021/11/01 22:00:40;;;;;;;2.92;2.20;;;16.00;73.70;;;;;;4982882;28;95209;-70
2021/11/01 22:20:17;;;;;;;4.60;2.40;;;16.10;73.80;;;;;;4983430;28;96216;-66
2021/11/01 22:23:09;;;;;;;2.17;1.98;;;16.20;73.80;;;;;;4986267;28;95739;-66
2021/11/01 22:34:17;;;;;;;3.42;2.30;;;16.20;73.70;;;;;;4983601;28;95847;-66
2021/11/01 22:39:47;;;;;;;3.70;2.22;;;16.30;73.80;;;;;;4981666;28;95525;-66
2021/11/01 22:42:33;;;;;;;3.58;1.98;;;16.30;73.70;;;;;;4988527;28;96026;-66
2021/11/01 22:45:26;;;;;;;4.72;2.00;;;16.30;73.70;;;;;;4991881;28;95824;-67
2021/11/01 22:56:18;;;;;;;1.80;1.70;;;16.40;73.60;;;;;;4988611;28;95879;-67
2021/11/01 22:58:51;;;;;;;2.95;2.00;;;16.40;73.60;;;;;;4981922;28;95699;-68
2021/11/01 23:01:27;;;;;;;2.30;1.60;;;16.50;73.60;;;;;;5000010;28;95734;-65
2021/11/01 23:31:51;;;;;;;2.50;1.83;;;17.20;73.20;;;;;;5008220;28;95678;-65
2021/11/01 23:34:25;;;;;;;2.05;1.35;;;17.30;73.00;;;;;;4993918;28;95927;-66
2021/11/01 23:36:56;;;;;;;4.68;1.63;;;17.40;73.00;;;;;;4981113;28;96312;-67
2021/11/01 23:39:27;;;;;;;1.90;1.40;;;17.50;72.80;;;;;;4980081;28;95741;-66
2021/11/01 23:42:00;;;;;;;1.95;1.50;;;17.50;72.80;;;;;;4988688;28;97412;-67
2021/11/01 23:44:30;;;;;;;3.13;1.85;;;17.50;72.90;;;;;;4987932;28;95358;-67
2021/11/01 23:47:00;;;;;;;2.42;1.60;;;17.60;72.90;;;;;;4989069;28;95265;-66
2021/11/01 23:49:32;;;;;;;2.33;1.63;;;17.70;72.50;;;;;;4998965;28;96275;-67
2021/11/01 23:52:11;;;;;;;3.38;2.17;;;17.80;72.50;;;;;;4989704;28;95559;-67
2021/11/01 23:54:45;;;;;;;2.63;1.70;;;17.90;72.40;;;;;;4984182;28;96090;-65
2021/11/01 23:57:19;;;;;;;2.22;1.42;;;17.90;72.30;;;;;;4988419;28;96368;-66
2021/11/01 23:59:51;;;;;;;1.67;1.50;;;18.00;72.20;;;;;;4992087;28;95759;-66
